PPIZ

Details ICAO PPIZ (PIZ)
Name POINT LAY LRRS
Region USA (Alaska)
Timezone America/Nome (UTC-9.0)
Plans Departing 4
Arriving 2
Stats Elevation 25 ft / 8 m (AMSL)
Location 69.732091° -163.011126°
Runways 1
Magnetic Variation 11.445° E
Sunrise Unknown / Unknown
Sunset Unknown / Unknown
Advertisement - Login to hide

Runways

ID Width Length Bearing (true) Bearing (mag) Surface Threshold Offset Overrun Length
05 79 ft / 24 m 4,504 ft / 1,373 m 68.62° 57.18° Gravel 0 ft / 0 m 0 ft / 0 m
23 79 ft / 24 m 4,504 ft / 1,373 m 248.65° 237.21° Gravel 0 ft / 0 m 0 ft / 0 m

Map

Weather


0- 5 10 15 20 25 30 35+ Temperature / ° C

Clouds and Precipitation
Forecast for 2017-12-12 18:00 UTC. Updated an hour ago

Ground ~20,000 ft ~40,000 ft Winds

METAR

PPIZ 121803Z AUTO 05024KT 1SM -SN BR BKN025 BKN034 OVC041 M13/M14 A2972 RMK AO2 PK WND 05027/1802 P0000 FZRANO TSNO

TAF

Not found

Frequencies

Recorded 135.65 MHz ASOS
Unicom 126.20 MHz UNICOM
Unicom 122.40 MHz CTAF
Warning: Do not use this data for real-world aviation or navigation. No guarantee of current accuracy is given.